createdAt,value
2023-11-17T00:01:25.702Z,100988.35
2023-11-17T00:03:56.782Z,100987.59
2023-11-17T00:06:27.749Z,100985.04
2023-11-17T00:09:00.752Z,100987.03
2023-11-17T00:11:31.776Z,100976.41
2023-11-17T00:14:02.541Z,100977.89
2023-11-17T00:16:33.464Z,100981.35
2023-11-17T00:19:07.436Z,100975.10
2023-11-17T00:21:38.309Z,100980.07
2023-11-17T00:24:10.745Z,100978.72
2023-11-17T00:26:41.631Z,100975.56
2023-11-17T00:29:12.575Z,100966.66
2023-11-17T00:31:43.472Z,100961.32
2023-11-17T00:34:14.419Z,100951.83
2023-11-17T00:36:48.443Z,100942.58
2023-11-17T00:39:19.348Z,100938.58
2023-11-17T00:41:50.103Z,100945.38
2023-11-17T00:44:20.935Z,100938.86
2023-11-17T00:46:52.000Z,100937.77
2023-11-17T00:49:23.052Z,100936.60
2023-11-17T00:51:54.352Z,100941.97
2023-11-17T00:54:27.773Z,100926.89
2023-11-17T00:56:58.912Z,100914.63
2023-11-17T00:59:29.803Z,100906.34
2023-11-17T01:02:02.932Z,100899.16
2023-11-17T01:04:33.801Z,100897.77
2023-11-17T01:07:04.575Z,100892.45
2023-11-17T01:09:35.349Z,100892.35
2023-11-17T01:12:06.409Z,100896.10
2023-11-17T01:14:37.868Z,100885.26
2023-11-17T01:17:08.783Z,100868.89
2023-11-17T01:19:41.633Z,100860.88
2023-11-17T01:22:13.244Z,100859.16
2023-11-17T01:24:44.249Z,100854.52
2023-11-17T01:27:15.174Z,100850.50
2023-11-17T01:29:46.011Z,100844.88
2023-11-17T01:32:17.436Z,100844.91
2023-11-17T01:34:48.495Z,100844.59
2023-11-17T01:37:19.889Z,100848.77
2023-11-17T01:39:50.750Z,100850.23
2023-11-17T01:42:22.961Z,100844.55
2023-11-17T01:44:53.796Z,100828.17
2023-11-17T01:47:24.769Z,100816.25
2023-11-17T01:49:55.534Z,100803.10
2023-11-17T01:52:26.387Z,100803.07
2023-11-17T01:54:58.260Z,100796.56
2023-11-17T01:57:29.180Z,100789.02
2023-11-17T02:00:00.287Z,100785.84
2023-11-17T02:02:31.344Z,100788.55
2023-11-17T02:05:03.126Z,100778.89
2023-11-17T02:07:35.388Z,100776.09
2023-11-17T02:10:08.565Z,100778.57
2023-11-17T02:12:48.608Z,100777.64
2023-11-17T02:15:23.080Z,100769.55
2023-11-17T02:17:56.246Z,100759.09
2023-11-17T02:20:27.818Z,100757.10
2023-11-17T02:23:01.418Z,100760.30
2023-11-17T02:25:34.479Z,100761.13
2023-11-17T02:28:11.968Z,100752.33
2023-11-17T02:30:42.947Z,100757.42
2023-11-17T02:33:17.625Z,100763.48
2023-11-17T02:35:50.553Z,100770.61
2023-11-17T02:38:22.164Z,100764.02
2023-11-17T02:40:57.472Z,100755.59
2023-11-17T02:43:31.239Z,100768.55
2023-11-17T02:46:02.746Z,100774.34
2023-11-17T02:48:38.161Z,100783.20
2023-11-17T02:51:20.383Z,100797.75
2023-11-17T02:53:51.585Z,100802.73
2023-11-17T02:56:23.249Z,100800.02
2023-11-17T02:58:56.020Z,100795.57
2023-11-17T03:01:27.300Z,100775.32
2023-11-17T03:03:58.223Z,100759.48
2023-11-17T03:06:30.419Z,100754.02
2023-11-17T03:09:05.914Z,100753.05
2023-11-17T03:11:36.837Z,100750.30
2023-11-17T03:14:10.035Z,100759.48
2023-11-17T03:16:40.913Z,100761.20
2023-11-17T03:19:12.704Z,100756.94
2023-11-17T03:21:43.918Z,100753.68
2023-11-17T03:24:18.998Z,100744.06
2023-11-17T03:26:51.431Z,100730.58
2023-11-17T03:29:24.302Z,100722.29
2023-11-17T03:31:55.685Z,100727.14
2023-11-17T03:34:31.098Z,100728.91
2023-11-17T03:37:03.831Z,100728.20
2023-11-17T03:39:42.445Z,100733.20
2023-11-17T03:42:14.099Z,100731.00
2023-11-17T03:44:44.959Z,100726.02
2023-11-17T03:47:16.880Z,100720.98
2023-11-17T03:49:48.946Z,100718.73
2023-11-17T03:52:24.695Z,100724.79
2023-11-17T03:54:57.830Z,100726.90
2023-11-17T03:57:28.838Z,100729.88
2023-11-17T04:00:01.087Z,100731.58
2023-11-17T04:02:32.195Z,100731.87
2023-11-17T04:05:05.254Z,100733.84
2023-11-17T04:07:36.134Z,100733.30
2023-11-17T04:10:09.025Z,100731.33
2023-11-17T04:12:40.556Z,100734.56
2023-11-17T04:15:14.703Z,100734.98
2023-11-17T04:17:45.770Z,100735.54
2023-11-17T04:20:20.251Z,100735.96
2023-11-17T04:22:50.980Z,100735.23
2023-11-17T04:25:21.883Z,100734.82
2023-11-17T04:27:52.942Z,100734.16
2023-11-17T04:30:23.942Z,100732.98
2023-11-17T04:32:55.039Z,100737.31
2023-11-17T04:35:26.226Z,100739.59
2023-11-17T04:37:57.351Z,100738.71
2023-11-17T04:40:29.055Z,100733.61
2023-11-17T04:43:00.228Z,100719.23
2023-11-17T04:45:37.288Z,100712.98
2023-11-17T04:48:10.302Z,100706.07
2023-11-17T04:50:41.283Z,100699.90
2023-11-17T04:53:17.754Z,100704.81
2023-11-17T04:55:50.115Z,100701.06
2023-11-17T04:58:20.980Z,100699.35
2023-11-17T05:00:52.082Z,100697.46
2023-11-17T05:03:23.333Z,100690.60
2023-11-17T05:05:55.287Z,100683.83
2023-11-17T05:08:26.210Z,100678.66
2023-11-17T05:10:57.403Z,100673.73
2023-11-17T05:13:28.445Z,100663.44
2023-11-17T05:16:01.554Z,100656.42
2023-11-17T05:18:34.529Z,100657.86
2023-11-17T05:21:07.989Z,100652.90
2023-11-17T05:23:40.136Z,100655.75
2023-11-17T05:26:12.158Z,100657.93
2023-11-17T05:28:42.892Z,100659.83
2023-11-17T05:31:13.854Z,100664.15
2023-11-17T05:33:44.739Z,100663.84
2023-11-17T05:36:15.486Z,100660.90
2023-11-17T05:38:48.601Z,100662.35
2023-11-17T05:41:21.181Z,100659.60
2023-11-17T05:43:51.976Z,100662.54
2023-11-17T05:46:24.162Z,100665.61
2023-11-17T05:48:55.624Z,100665.36
2023-11-17T05:51:27.076Z,100661.55
2023-11-17T05:53:59.840Z,100659.17
2023-11-17T05:56:31.000Z,100654.64
2023-11-17T05:59:01.902Z,100642.67
2023-11-17T06:01:33.004Z,100642.16
2023-11-17T06:04:04.060Z,100639.10
2023-11-17T06:06:34.901Z,100625.31
2023-11-17T06:09:06.489Z,100616.27
2023-11-17T06:11:38.306Z,100620.17
2023-11-17T06:14:09.490Z,100616.23
2023-11-17T06:16:40.281Z,100615.29
2023-11-17T06:19:13.991Z,100619.53
2023-11-17T06:21:45.295Z,100618.19
2023-11-17T06:24:16.889Z,100629.65
2023-11-17T06:26:47.649Z,100634.08
2023-11-17T06:29:20.077Z,100634.95
2023-11-17T06:31:51.395Z,100624.64
2023-11-17T06:34:22.370Z,100614.84
2023-11-17T06:36:53.632Z,100620.23
2023-11-17T06:39:24.929Z,100630.91
2023-11-17T06:41:55.850Z,100623.42
2023-11-17T06:44:27.576Z,100615.36
2023-11-17T06:46:58.489Z,100614.21
2023-11-17T06:49:29.518Z,100618.98
2023-11-17T06:52:00.408Z,100626.66
2023-11-17T06:54:31.836Z,100624.66
2023-11-17T06:57:02.813Z,100615.05
2023-11-17T06:59:33.653Z,100611.48
2023-11-17T07:02:04.875Z,100612.58
2023-11-17T07:04:35.995Z,100612.48
2023-11-17T07:07:10.235Z,100608.29
2023-11-17T07:09:44.227Z,100594.08
2023-11-17T07:12:15.078Z,100585.31
2023-11-17T07:14:46.486Z,100587.48
2023-11-17T07:17:17.390Z,100585.14
2023-11-17T07:19:48.393Z,100590.75
2023-11-17T07:22:19.130Z,100601.30
2023-11-17T07:24:49.898Z,100601.23
2023-11-17T07:27:20.775Z,100583.97
2023-11-17T07:29:54.030Z,100568.42
2023-11-17T07:32:24.962Z,100569.77
2023-11-17T07:34:57.195Z,100580.91
2023-11-17T07:37:28.003Z,100576.30
2023-11-17T07:39:58.965Z,100566.98
2023-11-17T07:42:29.932Z,100536.95
2023-11-17T07:45:00.864Z,100535.41
2023-11-17T07:47:31.954Z,100569.98
2023-11-17T07:50:04.896Z,100570.70
2023-11-17T07:52:35.691Z,100561.95
2023-11-17T07:55:09.279Z,100569.84
2023-11-17T07:57:40.087Z,100565.55
2023-11-17T08:00:20.116Z,100557.86
2023-11-17T08:02:51.910Z,100552.08
2023-11-17T08:05:22.950Z,100546.30
2023-11-17T08:07:55.792Z,100543.76
2023-11-17T08:10:29.655Z,100539.29
2023-11-17T08:13:01.649Z,100537.60
2023-11-17T08:15:32.515Z,100536.63
2023-11-17T08:18:05.374Z,100539.70
2023-11-17T08:20:40.076Z,100539.38
2023-11-17T08:23:11.202Z,100531.23
2023-11-17T08:25:41.896Z,100524.17
2023-11-17T08:28:13.160Z,100506.16
2023-11-17T08:30:52.320Z,100497.45
2023-11-17T08:33:25.007Z,100500.45
2023-11-17T08:35:55.933Z,100507.15
2023-11-17T08:38:27.246Z,100511.05
2023-11-17T08:40:58.028Z,100508.33
2023-11-17T08:43:28.806Z,100503.48
2023-11-17T08:45:59.907Z,100496.40
2023-11-17T08:48:31.481Z,100496.42
2023-11-17T08:51:02.410Z,100504.39
2023-11-17T08:53:33.392Z,100507.20
2023-11-17T08:56:04.326Z,100504.73
2023-11-17T08:58:36.151Z,100500.72
2023-11-17T09:01:08.931Z,100495.56
2023-11-17T09:03:39.978Z,100500.18
2023-11-17T09:06:11.329Z,100495.83
2023-11-17T09:08:42.301Z,100494.37
2023-11-17T09:11:13.260Z,100490.82
2023-11-17T09:13:44.679Z,100483.48
2023-11-17T09:16:17.333Z,100480.67
2023-11-17T09:18:48.205Z,100472.30
2023-11-17T09:21:19.919Z,100462.54
2023-11-17T09:23:50.717Z,100467.19
2023-11-17T09:26:23.331Z,100472.84
2023-11-17T09:28:54.716Z,100466.54
2023-11-17T09:31:25.584Z,100460.55
2023-11-17T09:33:56.351Z,100448.31
2023-11-17T09:36:27.501Z,100434.11
2023-11-17T09:38:58.454Z,100434.30
2023-11-17T09:41:29.291Z,100425.96
2023-11-17T09:44:00.388Z,100414.99
2023-11-17T09:46:32.868Z,100410.66
2023-11-17T09:49:04.113Z,100403.92
2023-11-17T09:51:35.494Z,100389.11
2023-11-17T09:54:06.792Z,100389.41
2023-11-17T09:56:37.669Z,100394.42
2023-11-17T09:59:08.681Z,100382.56
2023-11-17T10:01:40.427Z,100370.19
2023-11-17T10:04:13.307Z,100358.64
2023-11-17T10:06:44.351Z,100354.70
2023-11-17T10:09:15.108Z,100352.45
2023-11-17T10:11:47.989Z,100350.84
2023-11-17T10:14:18.754Z,100338.33
2023-11-17T10:16:51.678Z,100334.89
2023-11-17T10:19:22.677Z,100323.84
2023-11-17T10:21:55.505Z,100317.10
2023-11-17T10:24:29.362Z,100307.83
2023-11-17T10:30:05.354Z,100299.16
2023-11-17T10:32:48.857Z,100292.20
2023-11-17T10:35:27.023Z,100286.68
2023-11-17T10:37:59.920Z,100288.69
2023-11-17T10:40:33.164Z,100289.38
2023-11-17T10:43:06.401Z,100288.47
2023-11-17T10:45:39.172Z,100289.22
2023-11-17T10:48:14.252Z,100290.99
2023-11-17T10:50:45.289Z,100290.56
2023-11-17T10:53:21.700Z,100289.27
2023-11-17T10:55:54.876Z,100276.24
2023-11-17T10:58:27.361Z,100272.63
2023-11-17T11:00:58.317Z,100286.17
2023-11-17T11:03:30.813Z,100293.48
2023-11-17T11:06:01.764Z,100294.92
2023-11-17T11:08:32.532Z,100297.73
2023-11-17T11:11:05.505Z,100283.02
2023-11-17T11:13:38.020Z,100272.19
2023-11-17T11:16:12.255Z,100279.73
2023-11-17T11:18:48.279Z,100273.77
2023-11-17T11:21:19.466Z,100264.67
2023-11-17T11:23:50.687Z,100255.44
2023-11-17T11:26:21.497Z,100246.38
2023-11-17T11:28:52.201Z,100235.44
2023-11-17T11:31:23.353Z,100236.34
2023-11-17T11:33:54.739Z,100248.80
2023-11-17T11:36:25.516Z,100258.20
2023-11-17T11:38:57.370Z,100262.45
2023-11-17T11:41:28.422Z,100262.14
2023-11-17T11:43:59.325Z,100252.99
2023-11-17T11:46:31.236Z,100258.65
2023-11-17T11:49:02.931Z,100262.94
2023-11-17T11:51:34.461Z,100263.79
2023-11-17T11:54:06.702Z,100257.01
2023-11-17T11:56:37.595Z,100256.91
2023-11-17T11:59:08.883Z,100245.60
2023-11-17T12:01:41.116Z,100238.62
2023-11-17T12:04:12.324Z,100243.56
2023-11-17T12:06:49.052Z,100256.70
2023-11-17T12:09:22.719Z,100258.91
2023-11-17T12:11:54.062Z,100263.92
2023-11-17T12:14:30.716Z,100260.61
2023-11-17T12:17:03.285Z,100262.15
2023-11-17T12:19:34.695Z,100252.60
2023-11-17T12:22:06.248Z,100246.51
2023-11-17T12:24:38.926Z,100245.02
2023-11-17T12:27:09.740Z,100232.51
2023-11-17T12:29:44.610Z,100234.89
2023-11-17T12:32:16.427Z,100237.51
2023-11-17T12:34:47.337Z,100230.09
2023-11-17T12:37:18.192Z,100222.20
2023-11-17T12:39:51.193Z,100220.90
2023-11-17T12:42:23.194Z,100220.89
2023-11-17T12:44:53.931Z,100211.05
2023-11-17T12:47:30.395Z,100203.15
2023-11-17T12:50:03.712Z,100200.30
2023-11-17T12:52:34.873Z,100205.63
2023-11-17T12:55:08.877Z,100198.52
2023-11-17T12:57:41.462Z,100203.62
2023-11-17T13:00:17.902Z,100206.60
2023-11-17T13:02:49.806Z,100214.88
2023-11-17T13:05:20.914Z,100228.85
2023-11-17T13:07:51.858Z,100224.77
2023-11-17T13:10:22.818Z,100218.94
2023-11-17T13:12:54.219Z,100217.00
2023-11-17T13:15:28.361Z,100202.93
2023-11-17T13:17:59.369Z,100197.58
2023-11-17T13:20:31.749Z,100173.58
2023-11-17T13:23:02.826Z,100172.04
2023-11-17T13:25:33.832Z,100170.88
2023-11-17T13:28:06.464Z,100164.41
2023-11-17T13:30:37.889Z,100155.63
2023-11-17T13:33:09.745Z,100149.77
2023-11-17T13:35:44.041Z,100153.27
2023-11-17T13:38:15.085Z,100152.55
2023-11-17T13:40:46.010Z,100144.84
2023-11-17T13:43:19.005Z,100137.43
2023-11-17T13:45:51.488Z,100137.94
2023-11-17T13:48:22.738Z,100135.00
2023-11-17T13:50:57.295Z,100132.27
2023-11-17T13:53:31.469Z,100132.38
2023-11-17T13:56:03.812Z,100137.06
2023-11-17T13:58:34.735Z,100137.50
2023-11-17T14:01:08.770Z,100142.89
2023-11-17T14:03:41.628Z,100140.91
2023-11-17T14:06:12.831Z,100136.38
2023-11-17T14:08:43.798Z,100125.38
2023-11-17T14:11:15.873Z,100114.98
2023-11-17T14:13:46.839Z,100106.34
2023-11-17T14:16:17.781Z,100108.19
2023-11-17T14:18:48.650Z,100107.02
2023-11-17T14:21:20.461Z,100098.66
2023-11-17T14:23:53.329Z,100088.73
2023-11-17T14:26:27.571Z,100086.91
2023-11-17T14:28:58.470Z,100089.15
2023-11-17T14:31:30.691Z,100088.67
2023-11-17T14:34:01.598Z,100085.08
2023-11-17T14:36:34.385Z,100087.27
2023-11-17T14:39:10.012Z,100081.13
2023-11-17T14:41:40.813Z,100078.63
2023-11-17T14:44:11.852Z,100073.95
2023-11-17T14:46:42.865Z,100077.70
2023-11-17T14:49:13.843Z,100077.59
2023-11-17T14:51:47.661Z,100080.96
2023-11-17T14:54:19.275Z,100091.50
2023-11-17T14:56:52.509Z,100093.67
2023-11-17T14:59:24.699Z,100090.73
2023-11-17T15:01:56.123Z,100083.46
2023-11-17T15:04:27.163Z,100074.30
2023-11-17T15:07:00.763Z,100076.23
2023-11-17T15:09:33.840Z,100067.41
2023-11-17T15:12:05.494Z,100066.92
2023-11-17T15:14:37.864Z,100069.27
2023-11-17T15:17:16.108Z,100066.69
2023-11-17T15:19:47.485Z,100063.40
2023-11-17T15:22:18.449Z,100067.57
2023-11-17T15:24:50.453Z,100068.23
2023-11-17T15:27:21.271Z,100063.63
2023-11-17T15:29:52.376Z,100070.41
2023-11-17T15:32:26.175Z,100067.02
2023-11-17T15:34:58.153Z,100058.58
2023-11-17T15:37:30.259Z,100049.69
2023-11-17T15:40:01.393Z,100041.61
2023-11-17T15:42:32.350Z,100029.98
2023-11-17T15:45:13.061Z,100019.06
2023-11-17T15:47:44.934Z,100010.09
2023-11-17T15:50:16.099Z,100008.30
2023-11-17T15:52:47.266Z,100006.80
2023-11-17T15:55:18.459Z,99997.13
2023-11-17T15:57:50.168Z,99995.42
2023-11-17T16:00:28.025Z,100007.61
2023-11-17T16:02:59.206Z,100012.84
2023-11-17T16:05:35.176Z,100013.25
2023-11-17T16:08:06.237Z,100018.95
2023-11-17T16:10:37.216Z,100022.08
2023-11-17T16:13:07.877Z,100014.55
2023-11-17T16:15:38.836Z,100009.91
2023-11-17T16:18:09.774Z,100002.82
2023-11-17T16:20:40.695Z,99996.21
2023-11-17T16:23:15.840Z,99992.56
2023-11-17T16:25:47.513Z,99992.15
2023-11-17T16:28:18.561Z,99996.59
2023-11-17T16:30:52.583Z,99996.65
2023-11-17T16:33:23.411Z,99992.12
2023-11-17T16:35:56.794Z,99981.80
2023-11-17T16:38:28.274Z,99981.45
2023-11-17T16:41:01.769Z,99993.40
2023-11-17T16:43:32.928Z,100001.38
2023-11-17T16:46:06.178Z,100000.02
2023-11-17T16:48:40.274Z,100000.77
2023-11-17T16:51:11.855Z,100003.58
2023-11-17T16:53:42.738Z,100008.17
2023-11-17T16:56:13.654Z,100011.07
2023-11-17T16:58:45.422Z,100010.55
2023-11-17T17:01:16.639Z,100008.17
2023-11-17T17:03:47.492Z,100004.25
2023-11-17T17:06:20.462Z,100007.33
2023-11-17T17:08:51.332Z,100011.08
2023-11-17T17:11:24.237Z,100009.66
2023-11-17T17:14:02.925Z,99990.52
2023-11-17T17:16:40.897Z,99977.86
2023-11-17T17:19:13.225Z,99979.81
2023-11-17T17:21:44.109Z,99986.17
2023-11-17T17:24:17.671Z,99984.21
2023-11-17T17:26:49.655Z,99998.61
2023-11-17T17:29:25.676Z,100007.45
2023-11-17T17:31:56.815Z,99999.11
2023-11-17T17:35:05.608Z,99986.52
2023-11-17T17:37:35.043Z,99982.38
2023-11-17T17:40:08.166Z,99982.08
2023-11-17T17:42:36.359Z,99989.46
2023-11-17T17:45:05.443Z,99991.02
2023-11-17T17:47:38.152Z,99993.83
2023-11-17T17:50:10.103Z,99998.61
2023-11-17T17:52:38.352Z,100002.34
2023-11-17T17:55:07.177Z,99996.45
2023-11-17T17:57:35.928Z,99992.74
2023-11-17T18:00:06.492Z,99991.70
2023-11-17T18:02:35.199Z,99993.27
2023-11-17T18:05:06.796Z,99983.73
2023-11-17T18:07:36.189Z,99974.55
2023-11-17T18:10:05.779Z,99966.94
2023-11-17T18:12:33.829Z,99961.52
2023-11-17T18:15:03.043Z,99954.00
2023-11-17T18:17:36.282Z,99951.84
2023-11-17T18:20:05.645Z,99954.40
2023-11-17T18:22:34.828Z,99958.91
2023-11-17T18:25:03.312Z,99965.85
2023-11-17T18:27:38.120Z,99980.10
2023-11-17T18:30:09.428Z,99985.40
2023-11-17T18:32:42.670Z,99984.25
2023-11-17T18:35:13.531Z,99994.08
2023-11-17T18:37:42.580Z,100001.16
2023-11-17T18:40:11.643Z,100012.24
2023-11-17T18:42:41.657Z,100020.65
2023-11-17T18:45:11.365Z,100019.03
2023-11-17T18:47:40.695Z,100014.73
2023-11-17T18:50:09.348Z,100023.09
2023-11-17T18:52:39.428Z,100024.58
2023-11-17T18:55:12.290Z,100018.34
2023-11-17T18:57:40.494Z,100015.11
2023-11-17T19:00:11.512Z,100008.82
2023-11-17T19:02:40.972Z,100009.63
2023-11-17T19:05:15.752Z,100006.86
2023-11-17T19:07:46.730Z,100012.13
2023-11-17T19:10:19.854Z,100018.75
2023-11-17T19:12:48.203Z,100020.15
2023-11-17T19:15:16.317Z,100018.16
2023-11-17T19:17:45.176Z,100016.84
2023-11-17T19:20:15.503Z,100009.39
2023-11-17T19:22:44.858Z,99999.36
2023-11-17T19:25:14.034Z,99990.75
2023-11-17T19:27:45.234Z,99989.23
2023-11-17T19:30:15.101Z,99984.88
2023-11-17T19:32:44.818Z,99982.30
2023-11-17T19:35:13.467Z,99990.43
2023-11-17T19:37:42.028Z,99990.24
2023-11-17T19:40:13.366Z,99991.11
2023-11-17T19:42:42.756Z,99990.11
2023-11-17T19:45:11.813Z,99987.13
2023-11-17T19:47:40.316Z,99975.79
2023-11-17T19:50:14.288Z,99964.28
2023-11-17T19:52:44.894Z,99955.30
2023-11-17T19:55:13.389Z,99956.92
2023-11-17T19:57:42.387Z,99953.56
2023-11-17T20:00:12.437Z,99948.39
2023-11-17T20:02:42.059Z,99950.60
2023-11-17T20:05:10.798Z,99954.98
2023-11-17T20:07:42.094Z,99948.30
2023-11-17T20:10:12.888Z,99938.83
2023-11-17T20:12:41.677Z,99943.20
2023-11-17T20:15:14.948Z,99934.44
2023-11-17T20:17:54.874Z,99928.93
2023-11-17T20:20:26.036Z,99931.27
2023-11-17T20:22:55.491Z,99923.80
2023-11-17T20:25:24.009Z,99918.58
2023-11-17T20:27:52.672Z,99915.35
2023-11-17T20:30:22.408Z,99909.39
2023-11-17T20:32:53.335Z,99898.52
2023-11-17T20:35:23.582Z,99894.54
2023-11-17T20:37:53.056Z,99899.30
2023-11-17T20:40:21.505Z,99910.79
2023-11-17T20:42:50.789Z,99908.89
2023-11-17T20:45:20.603Z,99915.05
2023-11-17T20:47:48.803Z,99916.45
2023-11-17T20:50:20.849Z,99918.71
2023-11-17T20:52:51.115Z,99923.29
2023-11-17T20:55:20.738Z,99925.05
2023-11-17T20:57:59.956Z,99924.70
2023-11-17T21:00:33.735Z,99933.85
2023-11-17T21:03:09.076Z,99934.70
2023-11-17T21:05:39.516Z,99935.88
2023-11-17T21:08:11.197Z,99940.94
2023-11-17T21:10:40.435Z,99948.20
2023-11-17T21:13:09.110Z,99951.30
2023-11-17T21:15:37.349Z,99949.30
2023-11-17T21:18:08.366Z,99936.34
2023-11-17T21:20:37.376Z,99925.85
2023-11-17T21:23:06.036Z,99927.56
2023-11-17T21:25:37.093Z,99926.92
2023-11-17T21:28:05.527Z,99938.39
2023-11-17T21:30:33.948Z,99946.56
2023-11-17T21:33:02.141Z,99946.23
2023-11-17T21:35:32.363Z,99934.38
2023-11-17T21:38:00.888Z,99917.37
2023-11-17T21:40:29.270Z,99906.20
2023-11-17T21:42:57.456Z,99895.21
2023-11-17T21:45:28.359Z,99874.80
2023-11-17T21:47:56.794Z,99855.94
2023-11-17T21:50:25.755Z,99844.23
2023-11-17T21:52:54.936Z,99836.91
2023-11-17T21:55:23.914Z,99826.91
2023-11-17T21:57:54.815Z,99820.04
2023-11-17T22:00:30.081Z,99845.86
2023-11-17T22:02:58.615Z,99857.28
2023-11-17T22:05:27.538Z,99841.65
2023-11-17T22:07:55.825Z,99808.02
2023-11-17T22:10:24.019Z,99812.67
2023-11-17T22:12:53.077Z,99830.72
2023-11-17T22:15:21.474Z,99849.81
2023-11-17T22:17:50.484Z,99843.29
2023-11-17T22:20:19.782Z,99842.88
2023-11-17T22:22:49.466Z,99853.63
2023-11-17T22:25:20.431Z,99855.05
2023-11-17T22:27:48.540Z,99848.80
2023-11-17T22:30:20.736Z,99846.29
2023-11-17T22:32:52.548Z,99842.65
2023-11-17T22:35:20.836Z,99828.48
2023-11-17T22:37:50.175Z,99811.55
2023-11-17T22:43:27.747Z,99807.05
2023-11-17T22:45:55.927Z,99815.66
2023-11-17T22:48:25.243Z,99828.55
2023-11-17T22:50:53.380Z,99834.65
2023-11-17T22:53:21.500Z,99835.52
2023-11-17T22:55:49.570Z,99831.40
2023-11-17T22:58:17.732Z,99838.38
2023-11-17T23:00:48.997Z,99848.00
2023-11-17T23:03:21.167Z,99849.45
2023-11-17T23:05:51.023Z,99858.48
2023-11-17T23:08:19.012Z,99867.36
2023-11-17T23:10:47.272Z,99871.64
2023-11-17T23:13:15.547Z,99862.29
2023-11-17T23:15:43.712Z,99856.86
2023-11-17T23:18:13.365Z,99865.70
2023-11-17T23:20:41.538Z,99863.63
2023-11-17T23:23:09.734Z,99864.86
2023-11-17T23:25:38.421Z,99865.17
2023-11-17T23:28:06.828Z,99856.36
2023-11-17T23:30:35.696Z,99855.27
2023-11-17T23:33:15.209Z,99854.33
2023-11-17T23:35:44.201Z,99849.30
2023-11-17T23:38:12.404Z,99857.13
2023-11-17T23:40:40.557Z,99864.43
2023-11-17T23:43:09.280Z,99863.16
2023-11-17T23:45:37.474Z,99869.70
2023-11-17T23:48:06.378Z,99870.95
2023-11-17T23:50:35.211Z,99873.35
2023-11-17T23:53:07.085Z,99875.45
2023-11-17T23:55:36.036Z,99866.52
2023-11-17T23:58:06.507Z,99872.41
